Time;durP1;ratioP1;P1;durP2;ratioP2;P2;SDS_P1;SDS_P2;PMS_P1;PMS_P2;Temp;Humidity;BMP_temperature;BMP_pressure;BME280_temperature;BME280_humidity;BME280_pressure;Samples;Min_cycle;Max_cycle;Signal;HPM_P1;HPM_P2
2022/06/16 00:00:45;;;;;;;;;6.25;6.00;;;;;;;;5018288;28;46279;-72
2022/06/16 00:03:11;;;;;;;;;5.75;5.75;;;;;;;;5019869;28;45794;-72
2022/06/16 00:05:37;;;;;;;;;8.33;6.00;;;;;;;;5013685;28;45480;-73
2022/06/16 00:08:03;;;;;;;;;5.67;5.33;;;;;;;;5000925;28;45475;-72
2022/06/16 00:10:28;;;;;;;;;6.67;6.67;;;;;;;;5004472;28;47173;-72
2022/06/16 00:12:54;;;;;;;;;6.25;6.00;;;;;;;;5012128;28;45361;-72
2022/06/16 00:15:22;;;;;;;;;6.00;6.00;;;;;;;;5013459;28;45466;-72
2022/06/16 00:17:47;;;;;;;;;6.00;6.00;;;;;;;;5011731;28;45305;-72
2022/06/16 00:20:13;;;;;;;;;6.00;6.00;;;;;;;;5018098;28;45388;-72
2022/06/16 00:22:38;;;;;;;;;7.25;6.00;;;;;;;;5009110;28;45387;-72
2022/06/16 00:25:04;;;;;;;;;7.33;7.33;;;;;;;;5016397;28;45646;-72
2022/06/16 00:27:29;;;;;;;;;5.33;5.00;;;;;;;;5009936;28;45472;-72
2022/06/16 00:29:54;;;;;;;;;11.00;8.00;;;;;;;;5011827;28;47424;-72
2022/06/16 00:32:20;;;;;;;;;7.00;6.00;;;;;;;;5003844;28;45530;-73
2022/06/16 00:34:45;;;;;;;;;5.50;5.50;;;;;;;;5003368;28;45399;-72
2022/06/16 00:37:10;;;;;;;;;7.50;7.00;;;;;;;;5008117;28;45352;-72
2022/06/16 00:39:35;;;;;;;;;5.00;5.00;;;;;;;;5013991;28;46019;-72
2022/06/16 00:42:08;;;;;;;;;7.00;6.67;;;;;;;;5012450;28;45298;-73
2022/06/16 00:44:33;;;;;;;;;6.00;6.00;;;;;;;;5015433;28;45469;-73
2022/06/16 00:46:59;;;;;;;;;5.67;5.67;;;;;;;;5007706;28;45631;-72
2022/06/16 00:49:25;;;;;;;;;7.00;7.00;;;;;;;;5008271;28;45956;-73
2022/06/16 00:51:52;;;;;;;;;6.00;6.00;;;;;;;;5006702;28;45437;-72
2022/06/16 00:54:17;;;;;;;;;5.67;5.33;;;;;;;;5015225;28;45476;-72
2022/06/16 00:56:43;;;;;;;;;4.50;4.50;;;;;;;;5013578;28;45427;-72
2022/06/16 00:59:08;;;;;;;;;9.75;8.50;;;;;;;;5012244;28;46052;-72
2022/06/16 01:01:34;;;;;;;;;7.00;6.00;;;;;;;;5010381;28;45511;-72
2022/06/16 01:06:44;;;;;;;;;7.00;5.00;;;;;;;;5017016;28;45367;-72
2022/06/16 01:09:11;;;;;;;;;5.75;5.75;;;;;;;;5005402;28;46902;-72
2022/06/16 01:14:51;;;;;;;;;7.00;4.00;;;;;;;;5013784;28;45466;-73
2022/06/16 01:17:24;;;;;;;;;5.33;5.33;;;;;;;;5014137;28;45364;-72
2022/06/16 01:19:57;;;;;;;;;5.00;5.00;;;;;;;;5007010;28;46006;-72
2022/06/16 01:22:31;;;;;;;;;7.00;7.00;;;;;;;;5015662;28;45466;-72
2022/06/16 01:25:02;;;;;;;;;7.67;6.00;;;;;;;;5012590;28;45312;-72
2022/06/16 01:27:46;;;;;;;;;7.00;7.00;;;;;;;;5004867;28;45303;-72
2022/06/16 01:30:14;;;;;;;;;6.00;5.00;;;;;;;;5024993;28;46391;-73
2022/06/16 01:32:58;;;;;;;;;6.00;4.67;;;;;;;;5013796;28;45568;-72
2022/06/16 01:35:43;;;;;;;;;6.00;6.00;;;;;;;;5013824;28;45284;-72
2022/06/16 01:38:20;;;;;;;;;6.00;5.00;;;;;;;;5013087;28;45320;-72
2022/06/16 01:41:00;;;;;;;;;6.00;6.00;;;;;;;;5020057;28;46244;-72
2022/06/16 01:43:31;;;;;;;;;6.00;6.00;;;;;;;;5010307;28;45640;-73
2022/06/16 01:45:56;;;;;;;;;4.50;4.50;;;;;;;;5010039;28;45351;-72
2022/06/16 01:48:22;;;;;;;;;6.00;6.00;;;;;;;;5015538;28;45457;-72
2022/06/16 01:50:51;;;;;;;;;8.00;8.00;;;;;;;;5008223;28;45435;-73
2022/06/16 01:53:19;;;;;;;;;6.00;6.00;;;;;;;;5018525;28;45483;-72
2022/06/16 01:55:55;;;;;;;;;7.75;7.75;;;;;;;;5011810;28;45450;-72
2022/06/16 01:58:27;;;;;;;;;6.00;6.00;;;;;;;;5011944;28;45313;-72
2022/06/16 02:00:54;;;;;;;;;6.50;5.75;;;;;;;;5008716;28;46105;-72
2022/06/16 02:03:25;;;;;;;;;6.00;6.00;;;;;;;;5012178;28;45593;-72
2022/06/16 02:05:58;;;;;;;;;6.00;6.00;;;;;;;;5016847;28;45422;-72
2022/06/16 02:08:26;;;;;;;;;7.00;7.00;;;;;;;;5005548;28;45286;-72
2022/06/16 02:10:59;;;;;;;;;6.00;6.00;;;;;;;;5012239;28;46245;-72
2022/06/16 02:13:30;;;;;;;;;7.00;7.00;;;;;;;;5012890;28;45495;-72
2022/06/16 02:16:02;;;;;;;;;5.75;5.75;;;;;;;;5012495;28;45457;-72
2022/06/16 02:18:29;;;;;;;;;7.67;7.67;;;;;;;;5014085;28;45277;-72
2022/06/16 02:21:32;;;;;;;;;6.25;6.25;;;;;;;;5017993;28;46174;-72
2022/06/16 02:23:58;;;;;;;;;7.00;7.00;;;;;;;;4973561;28;45580;-72
2022/06/16 02:26:26;;;;;;;;;6.00;5.33;;;;;;;;4979496;28;45458;-72
2022/06/16 02:28:56;;;;;;;;;6.00;6.00;;;;;;;;4974687;28;45349;-73
2022/06/16 02:31:40;;;;;;;;;5.25;5.25;;;;;;;;4975531;28;45369;-73
2022/06/16 02:34:12;;;;;;;;;4.33;4.33;;;;;;;;4976715;28;45396;-72
2022/06/16 02:36:47;;;;;;;;;6.00;6.00;;;;;;;;4982637;28;45449;-72
2022/06/16 02:39:20;;;;;;;;;5.67;5.00;;;;;;;;4973094;28;45579;-72
2022/06/16 02:41:50;;;;;;;;;8.00;6.75;;;;;;;;4981096;28;46303;-73
2022/06/16 02:44:20;;;;;;;;;6.00;6.00;;;;;;;;4979332;28;45480;-72
2022/06/16 02:47:04;;;;;;;;;5.50;5.50;;;;;;;;4976985;28;45413;-72
2022/06/16 02:49:29;;;;;;;;;5.25;5.25;;;;;;;;4975167;28;45644;-72
2022/06/16 02:52:05;;;;;;;;;5.00;5.00;;;;;;;;4975074;28;46314;-73
2022/06/16 02:54:41;;;;;;;;;9.33;7.33;;;;;;;;4985588;28;45291;-72
2022/06/16 02:57:15;;;;;;;;;6.25;6.25;;;;;;;;5003379;28;45482;-72
2022/06/16 02:59:48;;;;;;;;;7.00;7.00;;;;;;;;5025647;28;45436;-72
2022/06/16 03:02:15;;;;;;;;;7.00;6.00;;;;;;;;5012530;28;46167;-72
2022/06/16 03:04:42;;;;;;;;;6.00;6.00;;;;;;;;5001441;28;45570;-72
2022/06/16 03:07:10;;;;;;;;;6.00;6.00;;;;;;;;5009421;28;45370;-72
2022/06/16 03:09:37;;;;;;;;;7.67;6.33;;;;;;;;5009190;28;45353;-72
2022/06/16 03:12:02;;;;;;;;;5.00;5.00;;;;;;;;5014114;28;47010;-72
2022/06/16 03:14:27;;;;;;;;;5.33;5.33;;;;;;;;5011961;28;45290;-72
2022/06/16 03:16:52;;;;;;;;;7.00;7.00;;;;;;;;5015134;28;45656;-73
2022/06/16 03:19:20;;;;;;;;;4.67;4.67;;;;;;;;5009208;28;45353;-72
2022/06/16 03:21:45;;;;;;;;;6.00;6.00;;;;;;;;5009558;28;47183;-72
2022/06/16 03:24:10;;;;;;;;;8.33;7.33;;;;;;;;5013378;28;45417;-72
2022/06/16 03:26:35;;;;;;;;;6.33;6.33;;;;;;;;5011032;28;45427;-72
2022/06/16 03:29:01;;;;;;;;;5.33;5.33;;;;;;;;5009696;28;45532;-73
2022/06/16 03:31:26;;;;;;;;;5.00;5.00;;;;;;;;5009419;28;45540;-73
2022/06/16 03:33:51;;;;;;;;;6.33;5.00;;;;;;;;5014757;28;45736;-72
2022/06/16 03:36:17;;;;;;;;;5.00;5.00;;;;;;;;5008604;28;47737;-73
2022/06/16 03:38:42;;;;;;;;;6.67;6.67;;;;;;;;5014362;28;45440;-73
2022/06/16 03:41:08;;;;;;;;;6.00;6.00;;;;;;;;5019168;28;45948;-72
2022/06/16 03:43:33;;;;;;;;;6.33;5.33;;;;;;;;5011958;28;45475;-73
2022/06/16 03:45:58;;;;;;;;;5.00;5.00;;;;;;;;5009993;28;45436;-73
2022/06/16 03:48:23;;;;;;;;;6.67;6.00;;;;;;;;5013024;28;45402;-73
2022/06/16 03:50:48;;;;;;;;;6.00;6.00;;;;;;;;5006479;28;47149;-73
2022/06/16 03:53:14;;;;;;;;;7.00;5.00;;;;;;;;5012579;28;45661;-73
2022/06/16 03:55:39;;;;;;;;;7.25;6.00;;;;;;;;5003765;28;45403;-73
2022/06/16 03:58:05;;;;;;;;;7.33;5.33;;;;;;;;5010916;28;45370;-73
2022/06/16 04:00:30;;;;;;;;;5.00;5.00;;;;;;;;5019420;28;45381;-72
2022/06/16 04:05:40;;;;;;;;;6.00;6.00;;;;;;;;5013913;28;45391;-73
2022/06/16 04:08:06;;;;;;;;;7.67;7.67;;;;;;;;5001497;28;45382;-73
2022/06/16 04:10:31;;;;;;;;;5.00;5.00;;;;;;;;5008541;28;45487;-73
2022/06/16 04:12:56;;;;;;;;;5.33;5.33;;;;;;;;5008532;28;45603;-73
2022/06/16 04:15:21;;;;;;;;;6.00;6.00;;;;;;;;5015842;28;45549;-72
2022/06/16 04:17:47;;;;;;;;;6.00;6.00;;;;;;;;5011018;28;45316;-73
2022/06/16 04:20:12;;;;;;;;;5.33;5.33;;;;;;;;5011469;28;45469;-73
2022/06/16 04:22:37;;;;;;;;;5.33;5.33;;;;;;;;5011047;28;45313;-73
2022/06/16 04:25:03;;;;;;;;;6.00;6.00;;;;;;;;5013245;28;45522;-73
2022/06/16 04:27:28;;;;;;;;;5.75;5.75;;;;;;;;5015005;28;45380;-73
2022/06/16 04:29:53;;;;;;;;;4.75;4.75;;;;;;;;5011238;28;46282;-73
2022/06/16 04:32:18;;;;;;;;;6.00;6.00;;;;;;;;5006955;28;45470;-73
2022/06/16 04:34:44;;;;;;;;;5.50;5.50;;;;;;;;5008444;28;45463;-73
2022/06/16 04:37:10;;;;;;;;;5.00;5.00;;;;;;;;5010442;28;45508;-73
2022/06/16 04:39:35;;;;;;;;;5.00;5.00;;;;;;;;5008475;28;46071;-72
2022/06/16 04:42:00;;;;;;;;;6.00;6.00;;;;;;;;5008399;28;45367;-73
2022/06/16 04:44:25;;;;;;;;;5.67;5.67;;;;;;;;5004701;28;45322;-73
2022/06/16 04:46:50;;;;;;;;;6.33;5.67;;;;;;;;5006498;28;45431;-73
2022/06/16 04:49:16;;;;;;;;;5.00;5.00;;;;;;;;5018959;28;46266;-73
2022/06/16 04:51:41;;;;;;;;;5.25;5.00;;;;;;;;5007567;28;45426;-73
2022/06/16 04:54:06;;;;;;;;;7.25;7.25;;;;;;;;5014918;28;45536;-73
2022/06/16 04:56:31;;;;;;;;;5.00;5.00;;;;;;;;5010909;28;45483;-73
2022/06/16 04:58:57;;;;;;;;;5.00;5.00;;;;;;;;5010585;28;46447;-73
2022/06/16 05:01:23;;;;;;;;;5.00;5.00;;;;;;;;5009565;28;45407;-73
2022/06/16 05:03:48;;;;;;;;;6.67;5.67;;;;;;;;5010415;28;45604;-73
2022/06/16 05:06:13;;;;;;;;;4.33;4.33;;;;;;;;5008567;28;45415;-73
2022/06/16 05:08:39;;;;;;;;;6.00;6.00;;;;;;;;5030420;28;46069;-72
2022/06/16 05:11:04;;;;;;;;;6.33;6.00;;;;;;;;5008506;28;45301;-73
2022/06/16 05:13:29;;;;;;;;;4.50;4.50;;;;;;;;5003105;28;45435;-73
2022/06/16 05:15:54;;;;;;;;;6.00;6.00;;;;;;;;5009575;28;45358;-73
2022/06/16 05:18:20;;;;;;;;;5.00;5.00;;;;;;;;5022842;28;47220;-73
2022/06/16 05:20:45;;;;;;;;;5.75;5.75;;;;;;;;5010564;28;45391;-73
2022/06/16 05:23:11;;;;;;;;;7.00;6.75;;;;;;;;5009416;28;45436;-73
2022/06/16 05:25:36;;;;;;;;;4.67;4.67;;;;;;;;5004387;28;45309;-73
2022/06/16 05:28:02;;;;;;;;;6.00;6.00;;;;;;;;5014812;28;45390;-73
2022/06/16 05:30:27;;;;;;;;;6.67;6.00;;;;;;;;5009201;28;45385;-72
2022/06/16 05:32:52;;;;;;;;;5.00;5.00;;;;;;;;5032920;28;45286;-73
2022/06/16 05:35:17;;;;;;;;;8.50;7.00;;;;;;;;5013660;28;45307;-73
2022/06/16 05:37:42;;;;;;;;;5.25;5.25;;;;;;;;5009104;28;45574;-72
2022/06/16 05:40:08;;;;;;;;;7.67;6.00;;;;;;;;5003771;28;45472;-73
2022/06/16 05:42:33;;;;;;;;;4.33;4.33;;;;;;;;5012153;28;45223;-73
2022/06/16 05:44:59;;;;;;;;;1.75;0.00;;;;;;;;4998311;28;45678;-73
2022/06/16 05:47:24;;;;;;;;;6.00;5.00;;;;;;;;5020860;28;47113;-73
2022/06/16 05:49:49;;;;;;;;;6.75;6.75;;;;;;;;5010605;28;45525;-73
2022/06/16 05:52:18;;;;;;;;;6.00;6.00;;;;;;;;5012599;28;45502;-73
2022/06/16 05:54:43;;;;;;;;;4.67;4.67;;;;;;;;5012108;28;45363;-72
2022/06/16 05:57:09;;;;;;;;;7.33;7.33;;;;;;;;5022476;28;47093;-73
2022/06/16 05:59:34;;;;;;;;;5.75;5.75;;;;;;;;5013552;28;45368;-71
2022/06/16 06:01:59;;;;;;;;;6.00;5.33;;;;;;;;5015024;28;45427;-76
2022/06/16 06:04:25;;;;;;;;;6.25;5.75;;;;;;;;5011562;28;45478;-73
2022/06/16 06:06:50;;;;;;;;;4.67;4.67;;;;;;;;5012043;28;46885;-72
2022/06/16 06:17:27;;;;;;;;;4.67;4.00;;;;;;;;5012284;28;45433;-76
2022/06/16 06:19:53;;;;;;;;;5.00;5.00;;;;;;;;5012706;28;45384;-79
2022/06/16 06:22:19;;;;;;;;;6.75;6.75;;;;;;;;5012712;28;45436;-72
2022/06/16 06:24:44;;;;;;;;;7.67;6.00;;;;;;;;5009018;28;45490;-71
2022/06/16 06:27:09;;;;;;;;;6.25;6.00;;;;;;;;5012696;28;46122;-72
2022/06/16 06:29:34;;;;;;;;;8.00;7.00;;;;;;;;5021276;28;45487;-72
2022/06/16 06:32:01;;;;;;;;;7.33;7.00;;;;;;;;5012963;28;45312;-71
2022/06/16 06:34:26;;;;;;;;;6.67;6.67;;;;;;;;5018396;28;45492;-71
2022/06/16 06:36:51;;;;;;;;;8.00;6.50;;;;;;;;5011760;28;46193;-72
2022/06/16 06:39:17;;;;;;;;;5.50;5.50;;;;;;;;5014247;28;45414;-72
2022/06/16 06:41:42;;;;;;;;;9.00;6.00;;;;;;;;5013134;28;45486;-72
2022/06/16 06:44:07;;;;;;;;;8.00;7.67;;;;;;;;5002506;28;45505;-72
2022/06/16 06:46:33;;;;;;;;;7.33;7.33;;;;;;;;5009547;28;45532;-71
2022/06/16 06:48:58;;;;;;;;;8.00;8.00;;;;;;;;5015624;28;45364;-71
2022/06/16 06:51:23;;;;;;;;;7.00;6.00;;;;;;;;5012166;28;45407;-72
2022/06/16 06:53:48;;;;;;;;;6.25;6.00;;;;;;;;5016180;28;45353;-71
2022/06/16 06:56:14;;;;;;;;;7.50;6.00;;;;;;;;5005190;28;46147;-72
2022/06/16 06:58:39;;;;;;;;;6.00;6.00;;;;;;;;5013722;28;45431;-72
2022/06/16 07:01:06;;;;;;;;;8.50;7.25;;;;;;;;5016474;28;45499;-72
2022/06/16 07:03:32;;;;;;;;;6.33;6.33;;;;;;;;5017457;28;48260;-72
2022/06/16 07:06:01;;;;;;;;;6.67;6.00;;;;;;;;5004907;28;45991;-72
2022/06/16 07:08:26;;;;;;;;;6.00;6.00;;;;;;;;5017707;28;45455;-72
2022/06/16 07:10:51;;;;;;;;;7.00;7.00;;;;;;;;5006479;28;50419;-72
2022/06/16 07:13:16;;;;;;;;;6.00;6.00;;;;;;;;5015243;28;45504;-72
2022/06/16 07:15:42;;;;;;;;;6.00;6.00;;;;;;;;5016578;28;45278;-72
2022/06/16 07:18:07;;;;;;;;;6.33;6.33;;;;;;;;5026866;28;45392;-71
2022/06/16 07:20:33;;;;;;;;;6.33;6.33;;;;;;;;5017888;28;45379;-72
2022/06/16 07:22:58;;;;;;;;;6.50;6.50;;;;;;;;5009821;28;45566;-72
2022/06/16 07:25:23;;;;;;;;;7.25;6.50;;;;;;;;5008396;28;46806;-71
2022/06/16 07:27:48;;;;;;;;;6.00;6.00;;;;;;;;5007525;28;45496;-72
2022/06/16 07:30:16;;;;;;;;;6.33;6.00;;;;;;;;5015737;28;45481;-72
2022/06/16 07:32:42;;;;;;;;;8.00;6.75;;;;;;;;5008999;28;45667;-72
2022/06/16 07:35:08;;;;;;;;;6.67;6.67;;;;;;;;5011462;28;46781;-71
2022/06/16 07:37:33;;;;;;;;;6.75;6.75;;;;;;;;5011087;28;45686;-72
2022/06/16 07:39:58;;;;;;;;;5.50;5.50;;;;;;;;5009449;28;45447;-72
2022/06/16 07:42:23;;;;;;;;;7.00;7.00;;;;;;;;5017002;28;45345;-72
2022/06/16 07:44:48;;;;;;;;;5.00;5.00;;;;;;;;5005274;28;45548;-72
2022/06/16 07:47:14;;;;;;;;;5.33;5.33;;;;;;;;5011110;28;45419;-72
2022/06/16 07:49:39;;;;;;;;;6.25;6.25;;;;;;;;5007681;28;45379;-72
2022/06/16 07:52:05;;;;;;;;;6.00;6.00;;;;;;;;5016517;28;45490;-72
2022/06/16 07:54:30;;;;;;;;;6.00;6.00;;;;;;;;5009782;28;45467;-71
2022/06/16 07:56:55;;;;;;;;;6.00;6.00;;;;;;;;5017407;28;45823;-72
2022/06/16 07:59:21;;;;;;;;;5.00;5.00;;;;;;;;5007013;28;45561;-72
2022/06/16 08:01:46;;;;;;;;;7.00;7.00;;;;;;;;5001931;28;45402;-71
2022/06/16 08:04:12;;;;;;;;;7.75;7.00;;;;;;;;5014655;28;45993;-72
2022/06/16 08:06:38;;;;;;;;;8.00;5.00;;;;;;;;5026302;28;45618;-72
2022/06/16 08:09:04;;;;;;;;;5.00;5.00;;;;;;;;5012444;28;45371;-71
2022/06/16 08:14:13;;;;;;;;;10.25;9.00;;;;;;;;5014142;28;45348;-72
2022/06/16 08:16:39;;;;;;;;;6.00;6.00;;;;;;;;5004169;28;45477;-72
2022/06/16 08:19:04;;;;;;;;;8.33;5.67;;;;;;;;5004443;28;45379;-71
2022/06/16 08:21:29;;;;;;;;;5.00;5.00;;;;;;;;5016044;28;45278;-72
2022/06/16 08:23:55;;;;;;;;;5.67;5.33;;;;;;;;5007989;28;46088;-72
2022/06/16 08:26:20;;;;;;;;;4.67;4.67;;;;;;;;5010840;28;45415;-72
2022/06/16 08:28:46;;;;;;;;;7.00;6.00;;;;;;;;5015539;28;45443;-72
2022/06/16 08:31:12;;;;;;;;;6.33;5.67;;;;;;;;5004441;28;45448;-72
2022/06/16 08:33:37;;;;;;;;;6.00;6.00;;;;;;;;5011897;28;47087;-71
2022/06/16 08:36:03;;;;;;;;;6.00;6.00;;;;;;;;5001061;28;45411;-72
2022/06/16 08:38:28;;;;;;;;;7.50;5.00;;;;;;;;5010988;28;45509;-71
2022/06/16 08:41:12;;;;;;;;;4.33;4.33;;;;;;;;5015204;28;45328;-71
2022/06/16 08:43:43;;;;;;;;;5.25;5.25;;;;;;;;5007294;28;46153;-71
2022/06/16 08:46:11;;;;;;;;;5.75;5.75;;;;;;;;5014075;28;45216;-72
2022/06/16 08:48:37;;;;;;;;;5.67;5.67;;;;;;;;5014644;28;45464;-72
2022/06/16 08:51:14;;;;;;;;;4.75;4.75;;;;;;;;5021261;28;45439;-72
2022/06/16 08:53:39;;;;;;;;;6.33;5.67;;;;;;;;5021707;28;46165;-72
2022/06/16 08:56:07;;;;;;;;;7.00;7.00;;;;;;;;5004276;28;45444;-72
2022/06/16 08:58:32;;;;;;;;;6.00;6.00;;;;;;;;5007020;28;45546;-71
2022/06/16 09:01:05;;;;;;;;;6.00;5.67;;;;;;;;5018075;28;45402;-71
2022/06/16 09:03:45;;;;;;;;;5.50;5.50;;;;;;;;5014512;28;46284;-71
2022/06/16 09:06:19;;;;;;;;;3.67;2.33;;;;;;;;5010037;28;45622;-71
2022/06/16 09:09:02;;;;;;;;;7.25;7.25;;;;;;;;5011242;28;45275;-71
2022/06/16 09:11:34;;;;;;;;;5.67;5.67;;;;;;;;5008588;28;45308;-72
2022/06/16 09:14:09;;;;;;;;;10.00;6.00;;;;;;;;5007605;28;46209;-72
2022/06/16 09:16:37;;;;;;;;;5.50;5.50;;;;;;;;5013356;28;45483;-72
2022/06/16 09:19:03;;;;;;;;;6.50;6.50;;;;;;;;5010207;28;45439;-71
2022/06/16 09:21:28;;;;;;;;;5.67;5.67;;;;;;;;5012549;28;45531;-72
2022/06/16 09:23:59;;;;;;;;;7.00;7.00;;;;;;;;5013503;28;46122;-72
2022/06/16 09:26:28;;;;;;;;;6.00;6.00;;;;;;;;5012609;28;45491;-72
2022/06/16 09:28:57;;;;;;;;;5.50;5.50;;;;;;;;5013083;28;45685;-71
2022/06/16 09:31:38;;;;;;;;;6.00;6.00;;;;;;;;5016807;28;45518;-72
2022/06/16 09:34:06;;;;;;;;;7.67;6.67;;;;;;;;5012726;28;46440;-72
2022/06/16 09:36:35;;;;;;;;;6.67;5.67;;;;;;;;5012732;28;45544;-72
2022/06/16 09:39:09;;;;;;;;;6.33;5.00;;;;;;;;5016352;28;45446;-72
2022/06/16 09:44:39;;;;;;;;;4.67;4.67;;;;;;;;5012902;28;45296;-72
2022/06/16 09:47:07;;;;;;;;;5.67;5.67;;;;;;;;5011365;28;45372;-72
2022/06/16 09:49:41;;;;;;;;;3.33;3.33;;;;;;;;5012236;28;45675;-72
2022/06/16 09:52:11;;;;;;;;;7.00;6.00;;;;;;;;5010581;28;45456;-72
2022/06/16 09:54:42;;;;;;;;;4.67;4.67;;;;;;;;5011232;28;46239;-72
2022/06/16 09:57:11;;;;;;;;;6.33;6.33;;;;;;;;5005371;28;45427;-71
2022/06/16 09:59:45;;;;;;;;;6.50;6.00;;;;;;;;5016075;28;45410;-72
2022/06/16 10:02:18;;;;;;;;;5.67;5.67;;;;;;;;5018736;28;45412;-72
2022/06/16 10:04:43;;;;;;;;;5.00;5.00;;;;;;;;5014680;28;45329;-72
2022/06/16 10:07:11;;;;;;;;;6.33;5.67;;;;;;;;5009671;28;45391;-72
2022/06/16 10:09:39;;;;;;;;;7.33;5.00;;;;;;;;5011521;28;45453;-72
2022/06/16 10:12:12;;;;;;;;;5.33;5.33;;;;;;;;5014424;28;45444;-72
2022/06/16 10:14:51;;;;;;;;;8.25;5.25;;;;;;;;5023407;28;46244;-72
2022/06/16 10:17:17;;;;;;;;;5.00;5.00;;;;;;;;5008038;28;45491;-72
2022/06/16 10:19:44;;;;;;;;;7.00;6.00;;;;;;;;5003967;28;45536;-72
2022/06/16 10:22:11;;;;;;;;;5.67;4.00;;;;;;;;5009676;28;45455;-72
2022/06/16 10:24:39;;;;;;;;;5.33;5.33;;;;;;;;5022191;28;46535;-72
2022/06/16 10:27:05;;;;;;;;;6.00;6.00;;;;;;;;5014944;28;45420;-72
2022/06/16 10:29:32;;;;;;;;;7.33;7.00;;;;;;;;5015227;28;45408;-72
2022/06/16 10:31:58;;;;;;;;;6.00;4.00;;;;;;;;5014037;28;45429;-72
2022/06/16 10:34:32;;;;;;;;;5.67;5.33;;;;;;;;5009856;28;46189;-73
2022/06/16 10:37:07;;;;;;;;;5.75;5.75;;;;;;;;5022638;28;45352;-72
2022/06/16 10:40:02;;;;;;;;;9.25;7.00;;;;;;;;5009540;28;45553;-72
2022/06/16 10:42:31;;;;;;;;;5.67;5.67;;;;;;;;4997403;28;45495;-72
2022/06/16 10:44:59;;;;;;;;;6.00;6.00;;;;;;;;5020543;28;48070;-72
2022/06/16 10:47:31;;;;;;;;;6.00;6.00;;;;;;;;5012439;28;45602;-73
2022/06/16 10:49:57;;;;;;;;;6.33;5.00;;;;;;;;5013178;28;45429;-73
2022/06/16 10:52:26;;;;;;;;;5.00;5.00;;;;;;;;5014712;28;45367;-73
2022/06/16 10:54:59;;;;;;;;;6.00;6.00;;;;;;;;5009793;28;45485;-72
2022/06/16 10:57:26;;;;;;;;;6.67;5.00;;;;;;;;5012209;28;45542;-72
2022/06/16 10:59:56;;;;;;;;;6.67;6.00;;;;;;;;5005222;28;45400;-72
2022/06/16 11:02:25;;;;;;;;;6.00;6.00;;;;;;;;5009051;28;45494;-72
2022/06/16 11:04:56;;;;;;;;;7.00;7.00;;;;;;;;5013137;28;46478;-72
2022/06/16 11:07:22;;;;;;;;;5.33;5.33;;;;;;;;5014666;28;45515;-72
2022/06/16 11:09:47;;;;;;;;;7.00;7.00;;;;;;;;5010410;28;45559;-71
2022/06/16 11:12:14;;;;;;;;;5.25;5.25;;;;;;;;5013406;28;45548;-72
2022/06/16 11:14:47;;;;;;;;;4.00;4.00;;;;;;;;5018992;28;46100;-72
2022/06/16 11:17:20;;;;;;;;;5.67;5.67;;;;;;;;5001204;28;45361;-73
2022/06/16 11:19:58;;;;;;;;;5.67;5.67;;;;;;;;5019226;28;45480;-72
2022/06/16 11:22:29;;;;;;;;;5.25;5.25;;;;;;;;5013408;28;45482;-72
2022/06/16 11:24:59;;;;;;;;;7.67;6.33;;;;;;;;5010310;28;46021;-72
2022/06/16 11:27:24;;;;;;;;;5.00;4.33;;;;;;;;5011363;28;45506;-72
2022/06/16 11:29:49;;;;;;;;;5.00;5.00;;;;;;;;5012421;28;45308;-72
2022/06/16 11:32:19;;;;;;;;;6.67;6.67;;;;;;;;5014679;28;45439;-72
2022/06/16 11:34:45;;;;;;;;;6.25;6.25;;;;;;;;5009131;28;47103;-72
2022/06/16 11:37:32;;;;;;;;;5.00;5.00;;;;;;;;5010927;28;45505;-72
2022/06/16 11:40:03;;;;;;;;;5.75;5.75;;;;;;;;5000457;28;45598;-72
2022/06/16 11:42:49;;;;;;;;;3.67;3.67;;;;;;;;5013316;28;45316;-72
2022/06/16 11:45:53;;;;;;;;;6.33;5.00;;;;;;;;5007062;28;46237;-72
2022/06/16 11:48:30;;;;;;;;;4.67;4.67;;;;;;;;4950675;28;45615;-72
2022/06/16 11:51:03;;;;;;;;;6.00;6.00;;;;;;;;4952637;28;45490;-72
2022/06/16 11:53:47;;;;;;;;;5.67;5.67;;;;;;;;4953204;28;45426;-72
2022/06/16 11:56:12;;;;;;;;;5.00;5.00;;;;;;;;4953430;28;45517;-72
2022/06/16 11:58:51;;;;;;;;;5.67;4.67;;;;;;;;4950797;28;45512;-71
2022/06/16 12:01:17;;;;;;;;;5.00;5.00;;;;;;;;4951365;28;45458;-72
2022/06/16 12:03:52;;;;;;;;;5.00;4.33;;;;;;;;4951946;28;45398;-72
2022/06/16 12:06:36;;;;;;;;;6.33;6.33;;;;;;;;4951682;28;46308;-72
2022/06/16 12:09:03;;;;;;;;;5.00;3.33;;;;;;;;4952699;28;45455;-72
2022/06/16 12:11:40;;;;;;;;;6.00;6.00;;;;;;;;4954734;28;45489;-71
2022/06/16 12:14:11;;;;;;;;;5.50;4.75;;;;;;;;4952716;28;45621;-72
2022/06/16 12:17:02;;;;;;;;;5.00;5.00;;;;;;;;4952285;28;45653;-72
2022/06/16 12:19:39;;;;;;;;;4.33;4.33;;;;;;;;4991920;28;45293;-72
2022/06/16 12:22:11;;;;;;;;;5.33;5.33;;;;;;;;5012220;28;45355;-72
2022/06/16 12:24:58;;;;;;;;;5.67;5.67;;;;;;;;5014605;28;45450;-72
2022/06/16 12:27:41;;;;;;;;;5.00;5.00;;;;;;;;5008621;28;46128;-72
2022/06/16 12:30:09;;;;;;;;;5.67;5.00;;;;;;;;5014995;28;45226;-72
2022/06/16 12:32:53;;;;;;;;;5.00;5.00;;;;;;;;5013698;28;45478;-72
2022/06/16 12:35:35;;;;;;;;;4.00;4.00;;;;;;;;5017700;28;45390;-72
2022/06/16 12:38:05;;;;;;;;;5.67;5.67;;;;;;;;5008828;28;45493;-72
2022/06/16 12:40:41;;;;;;;;;4.00;4.00;;;;;;;;5007654;28;45430;-71
2022/06/16 12:43:19;;;;;;;;;5.33;5.33;;;;;;;;5007152;28;45248;-72
2022/06/16 12:45:47;;;;;;;;;5.00;5.00;;;;;;;;5001663;28;45971;-71
2022/06/16 12:48:14;;;;;;;;;4.00;3.67;;;;;;;;5012770;28;46245;-71
2022/06/16 12:50:42;;;;;;;;;5.00;5.00;;;;;;;;5010893;28;45302;-71
2022/06/16 12:53:07;;;;;;;;;5.67;5.00;;;;;;;;5006236;28;45373;-72
2022/06/16 12:55:35;;;;;;;;;5.33;5.33;;;;;;;;5007929;28;45414;-72
2022/06/16 12:58:05;;;;;;;;;6.33;5.00;;;;;;;;5012696;28;46241;-72
2022/06/16 13:00:33;;;;;;;;;6.25;6.00;;;;;;;;5015129;28;45526;-72
2022/06/16 13:03:04;;;;;;;;;5.33;4.67;;;;;;;;5022724;28;45603;-72
2022/06/16 13:05:30;;;;;;;;;4.67;4.67;;;;;;;;5004957;28;45555;-72
2022/06/16 13:07:57;;;;;;;;;4.00;4.00;;;;;;;;5007673;28;46885;-72
2022/06/16 13:10:23;;;;;;;;;4.00;4.00;;;;;;;;5009219;28;45428;-71
2022/06/16 13:12:50;;;;;;;;;4.00;3.67;;;;;;;;5009382;28;45548;-72
2022/06/16 13:15:18;;;;;;;;;5.33;5.33;;;;;;;;5017167;28;45439;-71
2022/06/16 13:17:48;;;;;;;;;6.00;5.33;;;;;;;;5015077;28;45388;-72
2022/06/16 13:20:16;;;;;;;;;6.00;6.00;;;;;;;;5011272;28;45423;-71
2022/06/16 13:22:48;;;;;;;;;5.50;5.50;;;;;;;;5008667;28;45340;-71
2022/06/16 13:25:34;;;;;;;;;6.33;6.00;;;;;;;;5011057;28;45522;-72
2022/06/16 13:27:59;;;;;;;;;6.00;5.00;;;;;;;;4968852;28;46363;-71
2022/06/16 13:30:30;;;;;;;;;7.00;7.00;;;;;;;;4969814;28;45545;-72
2022/06/16 13:33:02;;;;;;;;;4.33;4.33;;;;;;;;4965901;28;45448;-72
2022/06/16 13:35:31;;;;;;;;;5.00;5.00;;;;;;;;4971692;28;45438;-71
2022/06/16 13:38:02;;;;;;;;;5.00;5.00;;;;;;;;4960591;28;47194;-72
2022/06/16 13:40:28;;;;;;;;;6.00;4.33;;;;;;;;4968298;28;45488;-72
2022/06/16 13:42:56;;;;;;;;;6.00;5.67;;;;;;;;4971542;28;45659;-72
2022/06/16 13:45:24;;;;;;;;;4.67;4.67;;;;;;;;4970483;28;45346;-72
2022/06/16 13:48:12;;;;;;;;;4.67;4.67;;;;;;;;4973816;28;46059;-72
2022/06/16 13:50:43;;;;;;;;;7.00;6.67;;;;;;;;4970672;28;45397;-72
2022/06/16 13:53:09;;;;;;;;;7.00;5.33;;;;;;;;4956448;28;45921;-72
2022/06/16 13:55:36;;;;;;;;;5.33;4.67;;;;;;;;4963098;28;45499;-72
2022/06/16 13:58:07;;;;;;;;;5.67;5.67;;;;;;;;4965530;28;46931;-71
2022/06/16 14:00:34;;;;;;;;;4.00;4.00;;;;;;;;4971940;28;45569;-72
2022/06/16 14:03:01;;;;;;;;;4.33;4.33;;;;;;;;4968674;28;45575;-72
2022/06/16 14:05:28;;;;;;;;;6.25;5.25;;;;;;;;4999622;28;45463;-72
2022/06/16 14:07:56;;;;;;;;;5.33;5.33;;;;;;;;5014224;28;45455;-71
2022/06/16 14:10:37;;;;;;;;;4.33;4.33;;;;;;;;5005090;28;45450;-72
2022/06/16 14:13:16;;;;;;;;;4.00;4.00;;;;;;;;5015094;28;45515;-72
2022/06/16 14:15:41;;;;;;;;;4.00;4.00;;;;;;;;5013798;28;45619;-72
2022/06/16 14:18:25;;;;;;;;;7.00;7.00;;;;;;;;5012538;28;47270;-71
2022/06/16 14:20:51;;;;;;;;;4.50;4.50;;;;;;;;5018876;28;45427;-72
2022/06/16 14:23:22;;;;;;;;;4.00;4.00;;;;;;;;5019892;28;45484;-72
2022/06/16 14:25:50;;;;;;;;;4.33;4.00;;;;;;;;5015423;28;45446;-72
2022/06/16 14:28:21;;;;;;;;;4.67;4.67;;;;;;;;5014638;28;46368;-72
2022/06/16 14:30:48;;;;;;;;;4.67;4.67;;;;;;;;5021549;28;45444;-71
2022/06/16 14:33:23;;;;;;;;;4.33;4.33;;;;;;;;5010069;28;45515;-72
2022/06/16 14:35:55;;;;;;;;;4.67;4.33;;;;;;;;5009893;28;45389;-71
2022/06/16 14:38:34;;;;;;;;;4.67;4.67;;;;;;;;5009478;28;46245;-72
2022/06/16 14:41:25;;;;;;;;;5.00;5.00;;;;;;;;5006880;28;45633;-72
2022/06/16 14:44:02;;;;;;;;;4.33;4.33;;;;;;;;5002274;28;45407;-72
2022/06/16 14:46:44;;;;;;;;;5.67;5.67;;;;;;;;5007272;28;45396;-71
2022/06/16 14:49:12;;;;;;;;;8.00;5.67;;;;;;;;5010059;28;46497;-72
2022/06/16 14:51:39;;;;;;;;;5.00;5.00;;;;;;;;5013599;28;45298;-72
2022/06/16 14:54:10;;;;;;;;;6.00;6.00;;;;;;;;5014392;28;45354;-72
2022/06/16 14:56:40;;;;;;;;;4.67;4.67;;;;;;;;5016716;28;45402;-72
2022/06/16 14:59:07;;;;;;;;;8.00;6.33;;;;;;;;5009614;28;45234;-71
2022/06/16 15:01:34;;;;;;;;;4.75;4.75;;;;;;;;5013427;28;45498;-72
2022/06/16 15:04:02;;;;;;;;;6.00;5.00;;;;;;;;5017290;28;45503;-72
2022/06/16 15:06:28;;;;;;;;;6.67;5.00;;;;;;;;5007874;28;45366;-72
2022/06/16 15:08:57;;;;;;;;;5.00;5.00;;;;;;;;5018033;28;46246;-71
2022/06/16 15:11:23;;;;;;;;;4.67;4.33;;;;;;;;5002481;28;45890;-72
2022/06/16 15:13:50;;;;;;;;;4.33;4.33;;;;;;;;5002539;28;45410;-72
2022/06/16 15:19:03;;;;;;;;;5.00;4.00;;;;;;;;5008545;28;45811;-72